Time;durP1;ratioP1;P1;durP2;ratioP2;P2;SDS_P1;SDS_P2;PMS_P1;PMS_P2;Temp;Humidity;BMP_temperature;BMP_pressure;BME280_temperature;BME280_humidity;BME280_pressure;Samples;Min_cycle;Max_cycle;Signal;HPM_P1;HPM_P2
2022/11/13 00:00:26;;;;;;;26.98;6.63;;;5.50;99.90;;;;;;5077075;28;20174;-77
2022/11/13 00:02:52;;;;;;;12.80;5.40;;;5.40;99.90;;;;;;5079728;28;20182;-76
2022/11/13 00:05:18;;;;;;;57.72;8.90;;;5.50;99.90;;;;;;5067180;28;20270;-76
2022/11/13 00:07:43;;;;;;;13.18;4.90;;;5.50;99.90;;;;;;5082054;28;20201;-77
2022/11/13 00:10:09;;;;;;;37.85;6.63;;;5.40;99.90;;;;;;5078328;28;20194;-77
2022/11/13 00:12:35;;;;;;;6.85;4.78;;;5.40;99.90;;;;;;5079377;28;20405;-76
2022/11/13 00:15:00;;;;;;;9.77;4.65;;;5.50;99.90;;;;;;5065995;28;20186;-76
2022/11/13 00:17:27;;;;;;;5.28;4.88;;;5.50;99.90;;;;;;5073007;28;20198;-76
2022/11/13 00:19:53;;;;;;;5.68;4.80;;;5.50;99.90;;;;;;5080451;28;20660;-77
2022/11/13 00:22:19;;;;;;;20.80;5.38;;;5.40;99.90;;;;;;5075089;28;20266;-77
2022/11/13 00:24:45;;;;;;;16.77;6.68;;;5.30;99.90;;;;;;5076211;28;20232;-77
2022/11/13 00:27:11;;;;;;;13.52;6.05;;;5.40;99.90;;;;;;5079818;28;20585;-76
2022/11/13 00:29:36;;;;;;;21.60;6.45;;;5.30;99.90;;;;;;5073673;28;20210;-77
2022/11/13 00:32:02;;;;;;;6.00;5.05;;;5.30;99.90;;;;;;5067314;28;20211;-77
2022/11/13 00:34:28;;;;;;;5.78;5.32;;;5.20;99.90;;;;;;5076421;28;20269;-78
2022/11/13 00:36:53;;;;;;;16.45;5.53;;;5.30;99.90;;;;;;5082573;28;20284;-77
2022/11/13 00:39:19;;;;;;;19.83;5.90;;;5.30;99.90;;;;;;5074744;28;20248;-76
2022/11/13 00:41:44;;;;;;;22.88;6.47;;;5.30;99.90;;;;;;5081034;28;20170;-77
2022/11/13 00:44:10;;;;;;;27.77;6.90;;;5.10;99.90;;;;;;5085929;28;20635;-77
2022/11/13 00:46:36;;;;;;;22.80;6.18;;;5.10;99.90;;;;;;5080068;28;20191;-77
2022/11/13 00:49:02;;;;;;;25.10;5.72;;;5.10;99.90;;;;;;5086813;28;20226;-78
2022/11/13 00:51:27;;;;;;;6.70;4.65;;;5.00;99.90;;;;;;5066298;28;20244;-77
2022/11/13 00:53:53;;;;;;;4.53;4.13;;;5.00;99.90;;;;;;5076607;28;20172;-76
2022/11/13 00:56:18;;;;;;;7.43;4.65;;;5.00;99.90;;;;;;5074059;28;20179;-77
2022/11/13 00:58:44;;;;;;;29.60;5.60;;;4.90;99.90;;;;;;5084843;28;20191;-76
2022/11/13 01:01:13;;;;;;;14.90;4.65;;;4.70;99.90;;;;;;5088036;28;20644;-77
2022/11/13 01:03:38;;;;;;;14.65;4.07;;;4.60;99.90;;;;;;5076374;28;20179;-76
2022/11/13 01:06:20;;;;;;;20.30;5.53;;;4.50;99.90;;;;;;5071431;28;20186;-76
2022/11/13 01:08:46;;;;;;;18.27;5.28;;;4.40;99.90;;;;;;5080256;28;20731;-77
2022/11/13 01:11:15;;;;;;;12.35;4.40;;;4.40;99.90;;;;;;5084483;28;20553;-77
2022/11/13 01:13:43;;;;;;;4.28;3.72;;;4.40;99.90;;;;;;5069497;28;20182;-78
2022/11/13 01:16:11;;;;;;;23.20;4.90;;;4.30;99.90;;;;;;5086720;28;20224;-77
2022/11/13 01:18:37;;;;;;;15.48;5.07;;;4.40;99.90;;;;;;5080479;28;20678;-77
2022/11/13 01:21:04;;;;;;;6.57;4.60;;;4.40;99.90;;;;;;5074229;28;20210;-77
2022/11/13 01:23:30;;;;;;;16.02;4.78;;;4.50;99.90;;;;;;5072086;28;20183;-76
2022/11/13 01:26:04;;;;;;;10.73;4.60;;;4.50;99.90;;;;;;5077479;28;20240;-77
2022/11/13 01:28:30;;;;;;;9.13;4.47;;;4.60;99.90;;;;;;5067193;28;20194;-77
2022/11/13 01:30:55;;;;;;;15.15;4.88;;;4.50;99.90;;;;;;5074471;28;20199;-77
2022/11/13 01:33:21;;;;;;;13.48;5.07;;;4.50;99.90;;;;;;5078824;28;20183;-77
2022/11/13 01:35:46;;;;;;;30.98;6.10;;;4.40;99.90;;;;;;5082846;28;20171;-77
2022/11/13 01:38:12;;;;;;;27.95;6.15;;;4.30;99.90;;;;;;5072243;28;20202;-77
2022/11/13 01:40:45;;;;;;;7.43;3.90;;;4.30;99.90;;;;;;5070782;28;20651;-77
2022/11/13 01:43:29;;;;;;;12.60;5.03;;;4.40;99.90;;;;;;5068407;28;20179;-77
2022/11/13 01:45:58;;;;;;;20.25;4.85;;;4.40;99.90;;;;;;5066078;28;20196;-77
2022/11/13 01:48:30;;;;;;;4.63;4.18;;;4.40;99.90;;;;;;5073790;28;20712;-77
2022/11/13 01:50:56;;;;;;;30.15;5.18;;;4.50;99.90;;;;;;5073491;28;20199;-77
2022/11/13 01:53:22;;;;;;;19.70;5.20;;;4.40;99.90;;;;;;5075269;28;20557;-77
2022/11/13 01:55:48;;;;;;;25.60;5.50;;;4.40;99.90;;;;;;5070038;28;20183;-77
2022/11/13 01:58:13;;;;;;;3.78;3.53;;;4.40;99.90;;;;;;5075169;28;20722;-76
2022/11/13 02:00:40;;;;;;;4.63;3.95;;;4.40;99.90;;;;;;5074028;28;20707;-76
2022/11/13 02:03:06;;;;;;;4.20;3.90;;;4.50;99.90;;;;;;5082251;28;20649;-76
2022/11/13 02:05:32;;;;;;;21.95;5.65;;;4.50;99.90;;;;;;5084500;28;20190;-77
2022/11/13 02:07:57;;;;;;;8.95;4.60;;;4.30;99.90;;;;;;5087833;28;20256;-77
2022/11/13 02:10:23;;;;;;;19.33;5.35;;;4.20;99.90;;;;;;5080316;28;20182;-77
2022/11/13 02:12:50;;;;;;;25.42;5.80;;;4.40;99.90;;;;;;5073898;28;20708;-78
2022/11/13 02:15:22;;;;;;;14.75;5.10;;;4.30;99.90;;;;;;5078262;28;20658;-77
2022/11/13 02:17:54;;;;;;;26.40;5.85;;;4.20;99.90;;;;;;5085096;28;20281;-77
2022/11/13 02:20:31;;;;;;;13.15;5.25;;;4.20;99.90;;;;;;5086764;28;20633;-77
2022/11/13 02:23:13;;;;;;;33.17;7.15;;;4.10;99.90;;;;;;5086646;28;20788;-76
2022/11/13 02:25:40;;;;;;;11.93;4.95;;;4.10;99.90;;;;;;5073159;28;20181;-77
2022/11/13 02:28:06;;;;;;;8.85;4.05;;;4.10;99.90;;;;;;5085568;28;20191;-78
2022/11/13 02:30:34;;;;;;;4.25;3.95;;;4.30;99.90;;;;;;5072525;28;20218;-76
2022/11/13 02:32:59;;;;;;;4.93;4.18;;;4.40;99.90;;;;;;5075560;28;20175;-77
2022/11/13 02:35:34;;;;;;;10.73;5.28;;;4.40;99.90;;;;;;5093531;28;20265;-77
2022/11/13 02:38:02;;;;;;;14.68;5.30;;;4.40;99.90;;;;;;5062150;28;20230;-77
2022/11/13 02:40:28;;;;;;;6.03;4.20;;;4.40;99.90;;;;;;5068636;28;20179;-77
2022/11/13 02:42:54;;;;;;;26.63;5.65;;;4.40;99.90;;;;;;5065182;28;20202;-77
2022/11/13 02:45:19;;;;;;;4.13;3.80;;;4.40;99.90;;;;;;5071209;28;20677;-76
2022/11/13 02:47:46;;;;;;;8.52;4.60;;;4.40;99.90;;;;;;5061293;28;20195;-76
2022/11/13 02:50:13;;;;;;;6.00;4.25;;;4.30;99.90;;;;;;5075465;28;20209;-77
2022/11/13 02:52:39;;;;;;;5.40;4.40;;;4.30;99.90;;;;;;5076736;28;20228;-76
2022/11/13 02:55:05;;;;;;;9.50;5.05;;;4.30;99.90;;;;;;5068754;28;20303;-76
2022/11/13 02:57:31;;;;;;;4.97;4.47;;;4.20;99.90;;;;;;5073358;28;20214;-78
2022/11/13 02:59:57;;;;;;;12.25;5.45;;;4.10;99.90;;;;;;5074742;28;20179;-76
2022/11/13 03:02:22;;;;;;;5.50;5.10;;;4.20;99.90;;;;;;5079655;28;20179;-77
2022/11/13 03:04:48;;;;;;;5.72;5.13;;;4.30;99.90;;;;;;5067674;28;20191;-76
2022/11/13 03:07:14;;;;;;;8.20;5.32;;;4.30;99.90;;;;;;5075887;28;20190;-77
2022/11/13 03:09:40;;;;;;;5.38;4.97;;;4.30;99.90;;;;;;5078236;28;20200;-77
2022/11/13 03:12:09;;;;;;;5.40;4.90;;;4.30;99.90;;;;;;5074886;28;20215;-76
2022/11/13 03:14:35;;;;;;;10.93;5.68;;;4.40;99.90;;;;;;5068091;28;20187;-76
2022/11/13 03:17:01;;;;;;;6.20;4.38;;;4.30;99.90;;;;;;5067826;28;20717;-76
2022/11/13 03:19:27;;;;;;;13.40;5.90;;;4.20;99.90;;;;;;5059128;28;20687;-76
2022/11/13 03:21:53;;;;;;;12.27;5.82;;;4.20;99.90;;;;;;5070471;28;20187;-76
2022/11/13 03:24:18;;;;;;;6.05;5.45;;;4.00;99.90;;;;;;5068754;28;20187;-76
2022/11/13 03:26:44;;;;;;;5.88;5.40;;;3.90;99.90;;;;;;5078350;28;20171;-76
2022/11/13 03:29:10;;;;;;;6.05;5.55;;;4.00;99.90;;;;;;5081055;28;20206;-76
2022/11/13 03:31:35;;;;;;;9.20;6.40;;;4.10;99.90;;;;;;5073072;28;20290;-76
2022/11/13 03:34:01;;;;;;;9.18;5.47;;;4.20;99.90;;;;;;5076928;28;20196;-77
2022/11/13 03:36:26;;;;;;;6.78;5.72;;;4.20;99.90;;;;;;5075600;28;20229;-77
2022/11/13 03:38:52;;;;;;;23.83;7.18;;;4.20;99.90;;;;;;5071091;28;20558;-76
2022/11/13 03:41:18;;;;;;;18.27;6.47;;;4.20;99.90;;;;;;5074568;28;20222;-77
2022/11/13 03:43:44;;;;;;;17.52;7.05;;;4.10;99.90;;;;;;5078758;28;20592;-77
2022/11/13 03:46:10;;;;;;;9.60;5.70;;;4.10;99.90;;;;;;5084675;28;20264;-77
2022/11/13 03:48:36;;;;;;;16.35;6.13;;;4.00;99.90;;;;;;5085549;28;20191;-77
2022/11/13 03:51:01;;;;;;;9.18;6.15;;;3.90;99.90;;;;;;5081931;28;20661;-76
2022/11/13 03:53:27;;;;;;;6.10;5.53;;;3.80;99.90;;;;;;5079091;28;20905;-76
2022/11/13 03:55:52;;;;;;;16.58;6.75;;;3.90;99.90;;;;;;5073279;28;20171;-76
2022/11/13 03:58:19;;;;;;;6.15;5.55;;;3.90;99.90;;;;;;5085492;28;20660;-77
2022/11/13 04:00:46;;;;;;;8.48;6.25;;;3.80;99.90;;;;;;5072092;28;20261;-76
2022/11/13 04:03:12;;;;;;;7.40;5.97;;;3.80;99.90;;;;;;5077207;28;20186;-76
2022/11/13 04:05:38;;;;;;;23.30;6.97;;;3.70;99.90;;;;;;5081767;28;20179;-76
2022/11/13 04:08:04;;;;;;;27.35;7.18;;;3.70;99.90;;;;;;5060557;28;20270;-76
2022/11/13 04:10:30;;;;;;;32.90;7.50;;;3.70;99.90;;;;;;5071830;28;20183;-76
2022/11/13 04:12:55;;;;;;;7.78;6.18;;;3.60;99.90;;;;;;5085652;28;20181;-76
2022/11/13 04:15:21;;;;;;;17.15;6.55;;;3.50;99.90;;;;;;5081443;28;20672;-76
2022/11/13 04:17:48;;;;;;;9.32;6.50;;;3.50;99.90;;;;;;5079150;28;20213;-76
2022/11/13 04:20:13;;;;;;;9.23;6.18;;;3.50;99.90;;;;;;5086389;28;20205;-76
2022/11/13 04:22:39;;;;;;;7.80;5.97;;;3.50;99.90;;;;;;5078787;28;20202;-76
2022/11/13 04:25:05;;;;;;;12.85;6.53;;;3.60;99.90;;;;;;5081960;28;20228;-76
2022/11/13 04:27:31;;;;;;;6.07;5.53;;;3.60;99.90;;;;;;5075358;28;20202;-77
2022/11/13 04:29:57;;;;;;;7.03;5.72;;;3.50;99.90;;;;;;5086175;28;20171;-76
2022/11/13 04:32:22;;;;;;;6.00;5.50;;;3.60;99.90;;;;;;5079416;28;20281;-77
2022/11/13 04:34:48;;;;;;;6.20;5.75;;;3.60;99.90;;;;;;5064932;28;20180;-77
2022/11/13 04:37:14;;;;;;;6.93;5.72;;;3.70;99.90;;;;;;5086735;28;20180;-77
2022/11/13 04:39:39;;;;;;;6.55;5.95;;;3.70;99.90;;;;;;5084589;28;20171;-78
2022/11/13 04:44:49;;;;;;;6.10;5.60;;;3.60;99.90;;;;;;5084365;28;20232;-77
2022/11/13 04:47:15;;;;;;;10.82;6.10;;;3.60;99.90;;;;;;5080402;28;20186;-77
2022/11/13 04:49:40;;;;;;;6.75;6.05;;;3.60;99.90;;;;;;5071740;28;20171;-77
2022/11/13 04:52:06;;;;;;;7.03;5.93;;;3.50;99.90;;;;;;5078440;28;20531;-76
2022/11/13 04:54:32;;;;;;;6.70;6.10;;;3.50;99.90;;;;;;5082920;28;20179;-77
2022/11/13 04:56:57;;;;;;;6.03;5.45;;;3.50;99.90;;;;;;5071953;28;20178;-76
2022/11/13 04:59:23;;;;;;;8.23;5.65;;;3.60;99.90;;;;;;5070975;28;20331;-76
2022/11/13 05:01:49;;;;;;;6.13;5.63;;;3.50;99.90;;;;;;5082431;28;20261;-76
2022/11/13 05:04:15;;;;;;;8.27;5.88;;;3.50;99.90;;;;;;5087650;28;20187;-76
2022/11/13 05:06:41;;;;;;;8.50;5.88;;;3.40;99.90;;;;;;5093601;28;20182;-77
2022/11/13 05:09:07;;;;;;;5.78;5.28;;;3.30;99.90;;;;;;5084650;28;20742;-76
2022/11/13 05:11:32;;;;;;;5.85;5.35;;;3.40;99.90;;;;;;5092902;28;20281;-77
2022/11/13 05:13:58;;;;;;;5.50;5.10;;;3.50;99.90;;;;;;5076253;28;20565;-76
2022/11/13 05:16:23;;;;;;;6.60;5.93;;;3.50;99.90;;;;;;5085166;28;20205;-76
2022/11/13 05:18:49;;;;;;;7.32;6.63;;;3.50;99.90;;;;;;5083895;28;20263;-76
2022/11/13 05:21:15;;;;;;;6.22;5.72;;;3.50;99.90;;;;;;5086620;28;20182;-76
2022/11/13 05:23:41;;;;;;;6.80;6.20;;;3.40;99.90;;;;;;5082093;28;20182;-76
2022/11/13 05:26:09;;;;;;;8.32;7.53;;;3.40;99.90;;;;;;5088856;28;20194;-76
2022/11/13 05:28:35;;;;;;;7.90;6.63;;;3.50;99.90;;;;;;5084240;28;20277;-76
2022/11/13 05:31:12;;;;;;;11.25;8.98;;;3.50;99.90;;;;;;5068918;28;20217;-76
2022/11/13 05:33:39;;;;;;;17.08;11.80;;;3.40;99.90;;;;;;5079759;28;20641;-77
2022/11/13 05:36:08;;;;;;;12.73;11.30;;;3.40;99.90;;;;;;5083918;28;20199;-76
2022/11/13 05:38:34;;;;;;;13.93;11.30;;;3.30;99.90;;;;;;5080766;28;20225;-76
2022/11/13 05:41:26;;;;;;;12.75;11.43;;;3.20;99.90;;;;;;5082061;28;20183;-76
2022/11/13 05:43:52;;;;;;;16.95;12.10;;;3.10;99.90;;;;;;5075956;28;20252;-77
2022/11/13 05:46:20;;;;;;;14.20;12.00;;;3.10;99.90;;;;;;5083310;28;20206;-76
2022/11/13 05:48:50;;;;;;;15.73;13.48;;;3.00;99.90;;;;;;5069835;28;20242;-77
2022/11/13 05:51:21;;;;;;;16.98;13.00;;;2.90;99.90;;;;;;5090808;28;20210;-77
2022/11/13 05:53:47;;;;;;;14.65;11.15;;;2.80;99.90;;;;;;5083201;28;20174;-76
2022/11/13 05:56:15;;;;;;;11.88;10.70;;;2.80;99.90;;;;;;5085665;28;20176;-76
2022/11/13 05:58:42;;;;;;;10.93;8.65;;;2.80;99.90;;;;;;5081860;28;20198;-75
2022/11/13 06:01:14;;;;;;;11.88;9.25;;;2.80;99.90;;;;;;5083302;28;20195;-76
2022/11/13 06:03:40;;;;;;;8.52;7.70;;;2.70;99.90;;;;;;5081544;28;20182;-76
2022/11/13 06:06:07;;;;;;;8.75;7.95;;;2.60;99.90;;;;;;5074797;28;20187;-77
2022/11/13 06:08:33;;;;;;;7.95;7.18;;;2.70;99.90;;;;;;5083251;28;20202;-77
2022/11/13 06:11:01;;;;;;;8.50;7.70;;;2.70;99.90;;;;;;5088492;28;20212;-77
2022/11/13 06:13:27;;;;;;;7.95;7.15;;;2.80;99.90;;;;;;5082791;28;20665;-77
2022/11/13 06:15:53;;;;;;;6.47;5.88;;;2.80;99.90;;;;;;5080019;28;20176;-76
2022/11/13 06:18:23;;;;;;;6.95;5.88;;;2.80;99.90;;;;;;5083257;28;20682;-77
2022/11/13 06:20:49;;;;;;;5.82;5.32;;;2.80;99.90;;;;;;5076478;28;20195;-77
2022/11/13 06:23:14;;;;;;;11.32;6.13;;;2.90;99.90;;;;;;5066799;28;20195;-77
2022/11/13 06:25:40;;;;;;;5.68;5.07;;;2.90;99.90;;;;;;5072863;28;20199;-77
2022/11/13 06:28:05;;;;;;;6.97;5.03;;;2.90;99.90;;;;;;5073376;28;20245;-76
2022/11/13 06:30:31;;;;;;;6.78;5.13;;;2.80;99.90;;;;;;5076637;28;20178;-76
2022/11/13 06:32:56;;;;;;;5.32;4.93;;;2.80;99.90;;;;;;5065243;28;20241;-78
2022/11/13 06:35:22;;;;;;;7.75;5.50;;;2.80;99.90;;;;;;5066671;28;20729;-76
2022/11/13 06:37:48;;;;;;;9.30;5.55;;;2.90;99.90;;;;;;5074405;28;20225;-77
2022/11/13 06:40:14;;;;;;;20.67;5.60;;;2.70;99.90;;;;;;5064781;28;20245;-76
2022/11/13 06:42:40;;;;;;;8.43;4.70;;;2.70;99.90;;;;;;5066702;28;20190;-78
2022/11/13 06:45:06;;;;;;;5.22;4.78;;;2.60;99.90;;;;;;5072411;28;20192;-77
2022/11/13 06:47:31;;;;;;;14.77;5.55;;;2.70;99.90;;;;;;5068585;28;20199;-79
2022/11/13 06:49:57;;;;;;;12.27;5.28;;;2.80;99.90;;;;;;5074534;28;20529;-77
2022/11/13 06:52:23;;;;;;;7.70;5.68;;;2.90;99.90;;;;;;5076514;28;20206;-80
2022/11/13 06:54:48;;;;;;;6.05;5.43;;;2.80;99.90;;;;;;5062017;28;20191;-81
2022/11/13 06:57:14;;;;;;;5.85;5.22;;;2.80;99.90;;;;;;5064898;28;20179;-80
2022/11/13 06:59:39;;;;;;;5.93;5.43;;;2.90;99.90;;;;;;5070326;28;20176;-80
2022/11/13 07:02:05;;;;;;;5.78;5.35;;;2.90;99.90;;;;;;5066822;28;20219;-80
2022/11/13 07:04:31;;;;;;;6.28;5.68;;;3.10;99.90;;;;;;5086827;28;20653;-80
2022/11/13 07:06:56;;;;;;;5.93;5.43;;;3.20;99.90;;;;;;5065840;28;20179;-80
2022/11/13 07:09:22;;;;;;;6.13;5.63;;;3.20;99.90;;;;;;5086743;28;20217;-80
2022/11/13 07:11:48;;;;;;;6.32;5.72;;;3.20;99.90;;;;;;5081071;28;20195;-80
2022/11/13 07:14:13;;;;;;;6.70;6.05;;;3.30;99.90;;;;;;5083982;28;20183;-81
2022/11/13 07:16:39;;;;;;;6.43;5.82;;;3.20;99.90;;;;;;5072206;28;20282;-80
2022/11/13 07:19:04;;;;;;;6.93;6.32;;;3.30;99.90;;;;;;5077103;28;20198;-80
2022/11/13 07:21:30;;;;;;;6.70;6.10;;;3.30;99.90;;;;;;5077327;28;20183;-80
2022/11/13 07:23:56;;;;;;;7.00;6.40;;;3.40;99.90;;;;;;5083577;28;20185;-78
2022/11/13 07:26:22;;;;;;;7.07;6.47;;;3.30;99.90;;;;;;5070199;28;20559;-79
2022/11/13 07:28:49;;;;;;;6.30;5.65;;;3.20;99.90;;;;;;5078421;28;20302;-79
2022/11/13 07:31:16;;;;;;;6.38;5.78;;;3.20;99.90;;;;;;5072008;28;20215;-82
2022/11/13 07:33:42;;;;;;;7.22;5.97;;;3.10;99.90;;;;;;5069003;28;20171;-81
2022/11/13 07:36:08;;;;;;;6.60;5.97;;;3.10;99.90;;;;;;5067388;28;20195;-79
2022/11/13 07:38:34;;;;;;;6.70;6.13;;;3.10;99.90;;;;;;5080861;28;20230;-78
2022/11/13 07:41:00;;;;;;;7.18;6.57;;;3.00;99.90;;;;;;5072649;28;20209;-79
2022/11/13 07:43:26;;;;;;;6.50;5.90;;;3.00;99.90;;;;;;5068467;28;20207;-79
2022/11/13 07:45:53;;;;;;;6.43;5.93;;;3.00;99.90;;;;;;5080655;28;20241;-80
2022/11/13 07:48:26;;;;;;;6.95;6.25;;;3.10;99.90;;;;;;5074481;28;20609;-80
2022/11/13 07:50:52;;;;;;;7.43;6.63;;;3.10;99.90;;;;;;5066043;28;20208;-81
2022/11/13 07:53:18;;;;;;;6.75;6.15;;;3.10;99.90;;;;;;5047549;28;20709;-81
2022/11/13 07:55:44;;;;;;;7.80;7.00;;;3.20;99.90;;;;;;5046981;28;20198;-80
2022/11/13 07:58:10;;;;;;;7.65;6.55;;;3.30;99.90;;;;;;5053727;28;20223;-80
2022/11/13 08:00:35;;;;;;;7.90;7.20;;;3.30;99.90;;;;;;5056462;28;20211;-80
2022/11/13 08:03:10;;;;;;;8.65;7.38;;;3.40;99.90;;;;;;5051287;28;20225;-81
2022/11/13 08:05:36;;;;;;;7.07;6.47;;;3.50;99.90;;;;;;5057822;28;20258;-81
2022/11/13 08:08:02;;;;;;;8.52;7.40;;;3.60;99.90;;;;;;5039420;28;20311;-83
2022/11/13 08:10:29;;;;;;;8.15;7.43;;;3.70;99.90;;;;;;5047482;28;20214;-81
2022/11/13 08:13:03;;;;;;;7.40;6.75;;;3.80;99.90;;;;;;5040576;28;20620;-82
2022/11/13 08:15:29;;;;;;;8.77;7.90;;;4.20;99.90;;;;;;5044824;28;20187;-79
2022/11/13 08:18:00;;;;;;;8.43;7.45;;;4.50;99.90;;;;;;5051945;28;20626;-76
2022/11/13 08:20:27;;;;;;;7.88;7.07;;;4.60;99.90;;;;;;5053747;28;20184;-76
2022/11/13 08:22:56;;;;;;;8.00;7.20;;;4.70;99.90;;;;;;5043623;28;20225;-76
2022/11/13 08:25:21;;;;;;;8.15;7.28;;;4.60;99.90;;;;;;5047558;28;20267;-76
2022/11/13 08:27:47;;;;;;;8.90;7.88;;;4.60;99.90;;;;;;5057450;28;20286;-74
2022/11/13 08:30:13;;;;;;;11.07;8.55;;;4.60;99.90;;;;;;5040437;28;20203;-75
2022/11/13 08:32:38;;;;;;;10.32;8.00;;;4.60;99.90;;;;;;5041749;28;20259;-76
2022/11/13 08:35:05;;;;;;;9.05;8.15;;;4.60;99.90;;;;;;5040563;28;20656;-76
2022/11/13 08:37:31;;;;;;;8.18;7.43;;;4.60;99.90;;;;;;5035211;28;20258;-75
2022/11/13 08:39:57;;;;;;;7.75;7.05;;;4.70;99.90;;;;;;5051103;28;20188;-76
2022/11/13 08:42:22;;;;;;;8.80;8.00;;;4.70;99.90;;;;;;5044610;28;20186;-76
2022/11/13 08:44:48;;;;;;;7.88;7.07;;;4.80;99.90;;;;;;5038717;28;20714;-76
2022/11/13 08:47:14;;;;;;;8.25;7.45;;;4.80;99.90;;;;;;5036305;28;20209;-76
2022/11/13 08:49:39;;;;;;;8.15;7.43;;;5.00;99.90;;;;;;5040537;28;20175;-76
2022/11/13 08:52:05;;;;;;;10.13;8.15;;;5.10;99.90;;;;;;5054040;28;20180;-76
2022/11/13 08:54:30;;;;;;;8.35;7.22;;;5.20;99.90;;;;;;5060749;28;20530;-76
2022/11/13 08:56:56;;;;;;;10.85;7.38;;;5.40;99.90;;;;;;5049776;28;20195;-76
2022/11/13 08:59:22;;;;;;;9.18;7.85;;;5.50;99.90;;;;;;5049435;28;20204;-78
2022/11/13 09:01:48;;;;;;;7.53;6.82;;;5.70;99.90;;;;;;5039349;28;20188;-78
2022/11/13 09:04:14;;;;;;;7.60;6.85;;;6.10;99.90;;;;;;5029498;28;20177;-78
2022/11/13 09:06:39;;;;;;;6.70;6.15;;;6.50;99.90;;;;;;5045739;28;20203;-78
2022/11/13 09:09:05;;;;;;;7.30;6.63;;;6.90;99.90;;;;;;5034903;28;20204;-78
2022/11/13 09:11:32;;;;;;;5.97;5.47;;;7.70;99.90;;;;;;5046578;28;20175;-79
2022/11/13 09:13:57;;;;;;;5.90;5.40;;;9.50;99.90;;;;;;5050478;28;20230;-80
2022/11/13 09:16:23;;;;;;;6.50;5.90;;;11.40;99.90;;;;;;5048882;28;20176;-79
2022/11/13 09:18:58;;;;;;;7.65;5.97;;;12.90;99.90;;;;;;5057312;28;20210;-79
2022/11/13 09:21:24;;;;;;;5.90;5.18;;;14.80;99.90;;;;;;5046170;28;20285;-80
2022/11/13 09:23:50;;;;;;;4.82;4.50;;;16.70;99.90;;;;;;5058568;28;20184;-80
2022/11/13 09:26:22;;;;;;;5.07;4.68;;;18.30;99.40;;;;;;5060064;28;20637;-80
2022/11/13 09:28:50;;;;;;;4.93;4.53;;;19.70;93.20;;;;;;5055975;28;20205;-79
2022/11/13 09:31:16;;;;;;;5.38;4.80;;;20.60;85.50;;;;;;5039871;28;20206;-79
2022/11/13 09:33:41;;;;;;;5.18;4.85;;;21.50;81.80;;;;;;5056403;28;20248;-79
2022/11/13 09:36:13;;;;;;;5.22;4.85;;;22.10;74.50;;;;;;5044102;28;20172;-80
2022/11/13 09:38:39;;;;;;;4.72;4.32;;;22.60;70.50;;;;;;5056492;28;20200;-80
2022/11/13 09:41:12;;;;;;;4.68;4.30;;;23.20;67.10;;;;;;5056843;28;20250;-80
2022/11/13 09:43:46;;;;;;;5.00;4.70;;;23.70;64.80;;;;;;5055799;28;20283;-79
2022/11/13 09:46:39;;;;;;;5.10;4.68;;;23.70;62.80;;;;;;5057579;28;20176;-79
2022/11/13 09:49:15;;;;;;;4.75;4.45;;;24.10;61.20;;;;;;5044657;28;20204;-79
2022/11/13 09:51:43;;;;;;;5.35;4.85;;;24.20;60.40;;;;;;5054355;28;20169;-79
2022/11/13 09:54:12;;;;;;;5.07;4.68;;;24.60;59.10;;;;;;5036607;28;20275;-79
2022/11/13 09:56:44;;;;;;;4.50;4.20;;;24.80;58.30;;;;;;5041343;28;20217;-80
2022/11/13 09:59:19;;;;;;;5.65;5.10;;;25.10;57.30;;;;;;5039947;28;20208;-79
2022/11/13 10:02:02;;;;;;;5.05;4.72;;;25.00;57.50;;;;;;5051835;28;20247;-79
2022/11/13 10:05:05;;;;;;;5.07;4.65;;;25.50;56.30;;;;;;5045451;28;20180;-80
2022/11/13 10:07:48;;;;;;;5.00;4.63;;;25.70;55.70;;;;;;5042526;28;20215;-80
2022/11/13 10:10:23;;;;;;;4.63;4.32;;;25.80;55.00;;;;;;5047119;28;20173;-79
2022/11/13 10:12:52;;;;;;;4.82;4.53;;;26.00;54.70;;;;;;5050437;28;20184;-79
2022/11/13 10:15:18;;;;;;;6.75;6.25;;;26.20;53.10;;;;;;5050465;28;20192;-79
2022/11/13 10:18:03;;;;;;;5.07;4.68;;;26.60;52.70;;;;;;5049948;28;20196;-80
2022/11/13 10:20:49;;;;;;;5.43;4.95;;;26.50;52.90;;;;;;5041630;28;20176;-79
2022/11/13 10:23:23;;;;;;;4.97;4.57;;;26.60;52.10;;;;;;5046857;28;20599;-79
2022/11/13 10:25:51;;;;;;;4.95;4.55;;;26.80;52.00;;;;;;5028290;28;20270;-80
2022/11/13 10:28:19;;;;;;;5.13;4.72;;;27.20;50.90;;;;;;5043154;28;20226;-79
2022/11/13 10:30:46;;;;;;;5.18;4.78;;;27.40;50.80;;;;;;5043278;28;20168;-80
2022/11/13 10:33:16;;;;;;;5.00;4.70;;;28.20;49.30;;;;;;5041476;28;20185;-80
2022/11/13 10:35:51;;;;;;;5.03;4.72;;;27.90;49.40;;;;;;5042439;28;20260;-80
2022/11/13 10:38:22;;;;;;;5.65;5.05;;;28.10;49.60;;;;;;5046365;28;20206;-80
2022/11/13 10:40:48;;;;;;;4.95;4.55;;;28.30;49.80;;;;;;5033349;28;20269;-79
2022/11/13 10:43:24;;;;;;;5.60;5.20;;;28.90;49.00;;;;;;5041958;28;20264;-79
2022/11/13 10:45:54;;;;;;;5.57;5.00;;;29.20;48.20;;;;;;5044744;28;20198;-77
2022/11/13 10:48:26;;;;;;;6.10;5.70;;;29.60;48.00;;;;;;5042232;28;20582;-77
2022/11/13 10:50:54;;;;;;;5.35;4.95;;;29.60;48.00;;;;;;5043285;28;20691;-77
2022/11/13 10:53:20;;;;;;;5.38;4.97;;;29.60;48.00;;;;;;5036202;28;20608;-77
2022/11/13 10:55:50;;;;;;;5.95;5.47;;;29.70;47.90;;;;;;5026731;28;20185;-77
2022/11/13 10:58:18;;;;;;;5.53;5.13;;;30.10;48.10;;;;;;5039661;28;20228;-77
2022/11/13 11:00:47;;;;;;;6.45;5.95;;;30.60;46.90;;;;;;5041012;28;20724;-78
2022/11/13 11:03:24;;;;;;;6.95;5.85;;;30.30;47.00;;;;;;5040115;28;20610;-77
2022/11/13 11:05:58;;;;;;;6.60;6.00;;;30.00;48.20;;;;;;5043365;28;20253;-77
2022/11/13 11:08:32;;;;;;;6.13;5.63;;;30.30;47.50;;;;;;5039398;28;20210;-77
2022/11/13 11:13:44;;;;;;;7.55;6.85;;;31.40;46.20;;;;;;5025339;28;20254;-77
2022/11/13 11:16:22;;;;;;;6.93;6.35;;;32.00;45.40;;;;;;5036820;28;20623;-77
2022/11/13 11:19:03;;;;;;;6.70;6.15;;;32.10;45.90;;;;;;5036414;28;20208;-77
2022/11/13 11:21:33;;;;;;;6.80;6.20;;;32.50;45.50;;;;;;5030490;28;20187;-77
2022/11/13 11:24:29;;;;;;;6.07;5.68;;;33.00;45.00;;;;;;5040687;28;20207;-77
2022/11/13 11:27:10;;;;;;;6.82;6.32;;;33.40;44.00;;;;;;5036465;28;20221;-77
2022/11/13 11:29:59;;;;;;;7.13;6.53;;;33.70;43.50;;;;;;5030907;28;20179;-77
2022/11/13 11:32:28;;;;;;;6.68;5.97;;;33.60;43.40;;;;;;5033700;28;20179;-77
2022/11/13 11:35:03;;;;;;;6.70;6.10;;;33.40;43.70;;;;;;5041493;28;20175;-77
2022/11/13 11:37:40;;;;;;;6.13;5.65;;;33.60;43.50;;;;;;5033583;28;20224;-77
2022/11/13 11:40:16;;;;;;;6.45;5.85;;;34.20;42.40;;;;;;5041644;28;20258;-77
2022/11/13 11:43:00;;;;;;;5.97;5.50;;;34.60;41.60;;;;;;5042942;28;20183;-77
2022/11/13 11:45:34;;;;;;;6.55;6.05;;;34.80;40.80;;;;;;5036605;28;20185;-77
2022/11/13 11:48:03;;;;;;;6.35;5.85;;;34.80;41.20;;;;;;5038879;28;20273;-77
2022/11/13 11:50:40;;;;;;;6.43;5.93;;;34.80;41.10;;;;;;5039000;28;20176;-76
2022/11/13 11:53:44;;;;;;;7.38;6.70;;;35.30;39.70;;;;;;5041929;28;20171;-76
2022/11/13 11:56:34;;;;;;;6.47;5.80;;;35.00;39.50;;;;;;5040921;28;20179;-75
2022/11/13 11:59:32;;;;;;;7.18;6.57;;;34.50;39.90;;;;;;5040118;28;20692;-76
2022/11/13 12:02:17;;;;;;;6.30;5.80;;;34.20;39.80;;;;;;5030694;28;20183;-76
2022/11/13 12:05:17;;;;;;;7.47;6.85;;;34.60;40.00;;;;;;5024357;28;20172;-76
2022/11/13 12:08:00;;;;;;;7.22;6.10;;;35.00;39.80;;;;;;5043373;28;20206;-76
2022/11/13 12:10:45;;;;;;;6.78;6.28;;;35.20;39.70;;;;;;5042092;28;20179;-76
2022/11/13 12:13:30;;;;;;;6.72;6.22;;;34.90;40.20;;;;;;5032470;28;20314;-76
2022/11/13 12:16:36;;;;;;;6.45;5.85;;;34.50;40.60;;;;;;5041417;28;20606;-76
2022/11/13 12:19:08;;;;;;;7.10;6.50;;;34.20;40.50;;;;;;5026405;28;20568;-76
2022/11/13 12:21:55;;;;;;;6.88;6.38;;;33.80;41.00;;;;;;5032363;28;20218;-76
2022/11/13 12:24:48;;;;;;;7.38;6.85;;;32.80;42.00;;;;;;5039225;28;20258;-76
2022/11/13 12:27:37;;;;;;;6.68;6.10;;;32.10;43.10;;;;;;5039148;28;20231;-75
2022/11/13 12:30:19;;;;;;;7.05;6.50;;;31.60;42.70;;;;;;5031911;28;20263;-75
2022/11/13 12:33:04;;;;;;;7.35;6.68;;;31.00;44.10;;;;;;5036944;28;20206;-75
2022/11/13 12:35:29;;;;;;;7.80;6.70;;;31.00;44.10;;;;;;5030579;28;20274;-78
2022/11/13 12:38:10;;;;;;;6.82;6.20;;;31.10;42.80;;;;;;5033370;28;20679;-78
2022/11/13 12:40:50;;;;;;;7.25;6.65;;;31.30;43.30;;;;;;5043164;28;20270;-76
2022/11/13 12:43:55;;;;;;;7.38;6.68;;;31.40;42.90;;;;;;5044467;28;20179;-75
2022/11/13 12:46:31;;;;;;;7.05;6.43;;;30.70;43.80;;;;;;5045926;28;20187;-75
2022/11/13 12:48:56;;;;;;;9.15;8.30;;;30.00;44.00;;;;;;5039738;28;20218;-78
2022/11/13 12:51:22;;;;;;;8.55;7.78;;;29.40;44.50;;;;;;5043923;28;20638;-78
2022/11/13 12:53:50;;;;;;;8.00;7.40;;;28.20;46.30;;;;;;5047949;28;20239;-78
2022/11/13 12:56:23;;;;;;;7.55;6.88;;;27.80;46.90;;;;;;5042624;28;20738;-78
2022/11/13 12:59:12;;;;;;;7.78;7.07;;;27.10;47.60;;;;;;5047060;28;20202;-78
2022/11/13 13:01:59;;;;;;;8.23;7.43;;;26.70;48.10;;;;;;5040217;28;20244;-78
2022/11/13 13:04:49;;;;;;;8.00;7.30;;;26.60;49.10;;;;;;5046381;28;20244;-78
2022/11/13 13:07:41;;;;;;;8.02;7.22;;;26.10;49.80;;;;;;5048614;28;20223;-78